createdAt,value
2017-05-23T00:01:10.214Z,18.96
2017-05-23T00:02:24.658Z,18.96
2017-05-23T00:03:38.357Z,18.95
2017-05-23T00:04:51.903Z,18.94
2017-05-23T00:06:05.795Z,18.93
2017-05-23T00:07:19.709Z,18.9
2017-05-23T00:08:33.398Z,18.87
2017-05-23T00:09:47.325Z,18.85
2017-05-23T00:11:01.266Z,18.85
2017-05-23T00:12:15.163Z,18.84
2017-05-23T00:13:29.423Z,18.85
2017-05-23T00:14:43.673Z,18.84
2017-05-23T00:15:57.360Z,18.84
2017-05-23T00:17:11.256Z,18.84
2017-05-23T00:18:25.985Z,18.82
2017-05-23T00:19:39.574Z,18.8
2017-05-23T00:20:53.131Z,18.79
2017-05-23T00:22:07.107Z,18.77
2017-05-23T00:23:20.681Z,18.76
2017-05-23T00:24:34.310Z,18.74
2017-05-23T00:25:47.909Z,18.71
2017-05-23T00:27:01.520Z,18.69
2017-05-23T00:28:15.425Z,18.67
2017-05-23T00:29:29.513Z,18.66
2017-05-23T00:30:43.389Z,18.66
2017-05-23T00:31:57.159Z,18.66
2017-05-23T00:33:10.789Z,18.65
2017-05-23T00:34:24.345Z,18.64
2017-05-23T00:35:37.902Z,18.61
2017-05-23T00:36:51.498Z,18.58
2017-05-23T00:38:05.095Z,18.55
2017-05-23T00:39:18.638Z,18.51
2017-05-23T00:40:32.914Z,18.45
2017-05-23T00:41:46.741Z,18.39
2017-05-23T00:43:00.272Z,18.34
2017-05-23T00:44:14.360Z,18.28
2017-05-23T00:45:28.241Z,18.26
2017-05-23T00:46:41.874Z,18.22
2017-05-23T00:47:56.080Z,18.19
2017-05-23T00:49:09.730Z,18.15
2017-05-23T00:50:23.284Z,18.13
2017-05-23T00:51:36.952Z,18.12
2017-05-23T00:52:50.489Z,18.11
2017-05-23T00:54:04.770Z,18.11
2017-05-23T00:55:18.546Z,18.11
2017-05-23T00:56:32.448Z,18.12
2017-05-23T00:57:45.996Z,18.1
2017-05-23T00:58:59.623Z,18.06
2017-05-23T01:00:13.258Z,18.03
2017-05-23T01:01:26.818Z,18.01
2017-05-23T01:02:40.747Z,17.99
2017-05-23T01:03:54.645Z,17.98
2017-05-23T01:05:08.269Z,17.98
2017-05-23T01:06:21.843Z,17.97
2017-05-23T01:07:35.565Z,17.98
2017-05-23T01:08:49.497Z,17.99
2017-05-23T01:10:03.757Z,18
2017-05-23T01:11:17.676Z,17.99
2017-05-23T01:12:31.286Z,17.99
2017-05-23T01:13:44.846Z,17.98
2017-05-23T01:14:58.654Z,17.97
2017-05-23T01:16:12.484Z,17.97
2017-05-23T01:17:26.064Z,17.95
2017-05-23T01:18:39.587Z,17.94
2017-05-23T01:19:53.159Z,17.92
2017-05-23T01:21:07.067Z,17.91
2017-05-23T01:22:20.760Z,17.91
2017-05-23T01:23:34.353Z,17.89
2017-05-23T01:24:47.870Z,17.86
2017-05-23T01:26:01.433Z,17.85
2017-05-23T01:27:15.017Z,17.83
2017-05-23T01:28:28.893Z,17.82
2017-05-23T01:29:42.750Z,17.81
2017-05-23T01:30:57.335Z,17.81
2017-05-23T01:32:11.212Z,17.8
2017-05-23T01:33:24.800Z,17.8
2017-05-23T01:34:38.674Z,17.8
2017-05-23T01:35:52.198Z,17.79
2017-05-23T01:37:05.867Z,17.78
2017-05-23T01:38:19.780Z,17.79
2017-05-23T01:39:33.334Z,17.78
2017-05-23T01:40:46.877Z,17.79
2017-05-23T01:42:00.529Z,17.78
2017-05-23T01:43:14.305Z,17.78
2017-05-23T01:44:27.871Z,17.79
2017-05-23T01:45:41.770Z,17.77
2017-05-23T01:46:55.417Z,17.77
2017-05-23T01:48:09.040Z,17.75
2017-05-23T01:49:23.428Z,17.71
2017-05-23T01:50:37.178Z,17.69
2017-05-23T01:51:51.092Z,17.67
2017-05-23T01:53:04.868Z,17.67
2017-05-23T01:54:18.566Z,17.67
2017-05-23T01:55:32.507Z,17.67
2017-05-23T01:56:46.132Z,17.67
2017-05-23T01:57:59.799Z,17.65
2017-05-23T01:59:13.877Z,17.62
2017-05-23T02:00:27.567Z,17.59
2017-05-23T02:01:41.221Z,17.57
2017-05-23T02:02:55.220Z,17.54
2017-05-23T02:04:09.076Z,17.51
2017-05-23T02:05:23.459Z,17.46
2017-05-23T02:06:37.237Z,17.42
2017-05-23T02:07:51.510Z,17.39
2017-05-23T02:09:05.439Z,17.38
2017-05-23T02:10:19.268Z,17.38
2017-05-23T02:11:32.808Z,17.36
2017-05-23T02:12:46.343Z,17.37
2017-05-23T02:14:00.300Z,17.35
2017-05-23T02:15:13.902Z,17.33
2017-05-23T02:16:27.550Z,17.28
2017-05-23T02:17:41.140Z,17.25
2017-05-23T02:18:55.405Z,17.22
2017-05-23T02:20:09.652Z,17.16
2017-05-23T02:21:23.255Z,17.14
2017-05-23T02:22:36.997Z,17.12
2017-05-23T02:23:50.550Z,17.11
2017-05-23T02:25:04.312Z,17.09
2017-05-23T02:26:17.898Z,17.07
2017-05-23T02:27:31.558Z,17.05
2017-05-23T02:28:45.176Z,17.01
2017-05-23T02:29:58.813Z,16.96
2017-05-23T02:31:12.362Z,16.95
2017-05-23T02:32:25.912Z,16.92
2017-05-23T02:33:39.784Z,16.92
2017-05-23T02:34:53.386Z,16.92
2017-05-23T02:36:06.939Z,16.91
2017-05-23T02:37:20.688Z,16.9
2017-05-23T02:38:34.397Z,16.88
2017-05-23T02:39:47.993Z,16.87
2017-05-23T02:41:01.579Z,16.86
2017-05-23T02:42:15.442Z,16.83
2017-05-23T02:43:29.041Z,16.82
2017-05-23T02:44:42.757Z,16.81
2017-05-23T02:45:56.395Z,16.81
2017-05-23T02:47:09.989Z,16.82
2017-05-23T02:48:23.865Z,16.82
2017-05-23T02:49:37.433Z,16.81
2017-05-23T02:50:51.034Z,16.83
2017-05-23T02:52:04.817Z,16.84
2017-05-23T02:53:18.423Z,16.84
2017-05-23T02:54:31.978Z,16.86
2017-05-23T02:55:45.546Z,16.86
2017-05-23T02:57:00.149Z,16.82
2017-05-23T02:58:13.749Z,16.79
2017-05-23T02:59:27.845Z,16.72
2017-05-23T03:00:41.419Z,16.68
2017-05-23T03:01:55.016Z,16.62
2017-05-23T03:03:08.612Z,16.56
2017-05-23T03:04:22.212Z,16.51
2017-05-23T03:05:35.865Z,16.46
2017-05-23T03:06:49.880Z,16.41
2017-05-23T03:08:03.448Z,16.37
2017-05-23T03:09:17.431Z,16.33
2017-05-23T03:10:30.990Z,16.31
2017-05-23T03:11:44.878Z,16.32
2017-05-23T03:12:58.519Z,16.31
2017-05-23T03:14:12.117Z,16.31
2017-05-23T03:15:25.721Z,16.33
2017-05-23T03:16:39.478Z,16.34
2017-05-23T03:17:53.173Z,16.35
2017-05-23T03:19:06.800Z,16.38
2017-05-23T03:20:20.797Z,16.41
2017-05-23T03:21:34.849Z,16.44
2017-05-23T03:22:48.636Z,16.47
2017-05-23T03:24:02.299Z,16.48
2017-05-23T03:25:16.259Z,16.48
2017-05-23T03:26:31.281Z,16.47
2017-05-23T03:27:47.249Z,16.46
2017-05-23T03:29:05.352Z,16.47
2017-05-23T03:30:23.956Z,16.48
2017-05-23T03:31:38.113Z,16.51
2017-05-23T03:32:56.635Z,16.52
2017-05-23T03:34:12.514Z,16.53
2017-05-23T03:35:30.577Z,16.55
2017-05-23T03:36:50.421Z,16.56
2017-05-23T03:38:05.642Z,16.58
2017-05-23T03:39:20.761Z,16.61
2017-05-23T03:40:34.359Z,16.64
2017-05-23T03:41:47.998Z,16.68
2017-05-23T03:43:01.576Z,16.73
2017-05-23T03:44:15.613Z,16.75
2017-05-23T03:45:31.874Z,16.75
2017-05-23T03:46:50.333Z,16.78
2017-05-23T03:48:03.990Z,16.79
2017-05-23T03:49:17.599Z,16.79
2017-05-23T03:50:31.182Z,16.8
2017-05-23T03:51:45.060Z,16.79
2017-05-23T03:52:58.902Z,16.8
2017-05-23T03:54:12.525Z,16.82
2017-05-23T03:55:26.124Z,16.84
2017-05-23T03:56:40.152Z,16.85
2017-05-23T03:57:53.703Z,16.88
2017-05-23T03:59:08.337Z,16.87
2017-05-23T04:00:22.339Z,16.86
2017-05-23T04:01:36.289Z,16.85
2017-05-23T04:02:50.219Z,16.84
2017-05-23T04:04:03.980Z,16.86
2017-05-23T04:05:17.604Z,16.86
2017-05-23T04:06:31.485Z,16.88
2017-05-23T04:07:45.141Z,16.9
2017-05-23T04:08:58.842Z,16.92
2017-05-23T04:10:12.486Z,16.92
2017-05-23T04:11:26.075Z,16.94
2017-05-23T04:12:39.911Z,16.98
2017-05-23T04:13:53.646Z,17
2017-05-23T04:15:07.549Z,17.01
2017-05-23T04:16:21.133Z,17.05
2017-05-23T04:17:34.775Z,17.07
2017-05-23T04:18:48.431Z,17.09
2017-05-23T04:20:02.339Z,17.12
2017-05-23T04:21:16.866Z,17.13
2017-05-23T04:22:32.962Z,17.14
2017-05-23T04:23:47.299Z,17.15
2017-05-23T04:25:00.987Z,17.15
2017-05-23T04:26:15.821Z,17.14
2017-05-23T04:27:29.467Z,17.14
2017-05-23T04:28:43.141Z,17.14
2017-05-23T04:29:57.952Z,17.13
2017-05-23T04:31:12.678Z,17.15
2017-05-23T04:32:27.090Z,17.16
2017-05-23T04:33:41.446Z,17.19
2017-05-23T04:34:55.851Z,17.22
2017-05-23T04:36:10.593Z,17.24
2017-05-23T04:37:24.669Z,17.26
2017-05-23T04:38:38.257Z,17.3
2017-05-23T04:39:52.438Z,17.33
2017-05-23T04:41:06.110Z,17.36
2017-05-23T04:42:20.041Z,17.39
2017-05-23T04:43:33.688Z,17.42
2017-05-23T04:44:47.301Z,17.44
2017-05-23T04:46:00.996Z,17.46
2017-05-23T04:47:14.896Z,17.5
2017-05-23T04:48:28.547Z,17.54
2017-05-23T04:49:42.536Z,17.57
2017-05-23T04:50:56.209Z,17.6
2017-05-23T04:52:09.874Z,17.63
2017-05-23T04:53:23.517Z,17.64
2017-05-23T04:54:37.451Z,17.65
2017-05-23T04:55:51.066Z,17.68
2017-05-23T04:57:05.106Z,17.72
2017-05-23T04:58:18.809Z,17.75
2017-05-23T04:59:32.517Z,17.79
2017-05-23T05:00:46.849Z,17.81
2017-05-23T05:02:00.590Z,17.83
2017-05-23T05:03:14.635Z,17.84
2017-05-23T05:04:28.396Z,17.84
2017-05-23T05:05:42.018Z,17.84
2017-05-23T05:06:55.652Z,17.84
2017-05-23T05:08:09.267Z,17.85
2017-05-23T05:09:22.871Z,17.86
2017-05-23T05:10:36.654Z,17.82
2017-05-23T05:11:50.350Z,17.81
2017-05-23T05:13:04.490Z,17.8
2017-05-23T05:14:18.425Z,17.79
2017-05-23T05:15:32.341Z,17.8
2017-05-23T05:16:47.041Z,17.82
2017-05-23T05:18:01.007Z,17.85
2017-05-23T05:19:14.668Z,17.89
2017-05-23T05:20:28.306Z,17.94
2017-05-23T05:21:41.873Z,18.01
2017-05-23T05:22:55.494Z,18.12
2017-05-23T05:24:09.174Z,18.22
2017-05-23T05:25:23.374Z,18.33
2017-05-23T05:26:37.016Z,18.45
2017-05-23T05:27:50.931Z,18.57
2017-05-23T05:29:04.898Z,18.72
2017-05-23T05:30:19.216Z,18.84
2017-05-23T05:31:33.344Z,19
2017-05-23T05:32:47.050Z,19.17
2017-05-23T05:34:01.404Z,19.34
2017-05-23T05:35:15.411Z,19.5
2017-05-23T05:36:29.432Z,19.63
2017-05-23T05:37:43.319Z,19.77
2017-05-23T05:38:56.954Z,19.92
2017-05-23T05:40:10.627Z,20.06
2017-05-23T05:41:25.000Z,20.18
2017-05-23T05:42:38.665Z,20.31
2017-05-23T05:43:52.365Z,20.45
2017-05-23T05:45:06.333Z,20.54
2017-05-23T05:46:20.444Z,20.63
2017-05-23T05:47:34.393Z,20.7
2017-05-23T05:48:48.643Z,20.73
2017-05-23T05:50:02.284Z,20.8
2017-05-23T05:51:16.028Z,20.84
2017-05-23T05:52:29.743Z,20.89
2017-05-23T05:53:43.379Z,20.94
2017-05-23T05:54:57.058Z,20.97
2017-05-23T05:56:11.033Z,21
2017-05-23T05:57:24.698Z,21.05
2017-05-23T05:58:38.318Z,21.12
2017-05-23T05:59:51.969Z,21.18
2017-05-23T06:01:05.620Z,21.26
2017-05-23T06:02:19.696Z,21.32
2017-05-23T06:03:33.299Z,21.37
2017-05-23T06:04:47.396Z,21.44
2017-05-23T06:06:01.019Z,21.49
2017-05-23T06:07:15.075Z,21.54
2017-05-23T06:08:28.730Z,21.6
2017-05-23T06:09:42.329Z,21.64
2017-05-23T06:10:55.984Z,21.67
2017-05-23T06:12:09.866Z,21.7
2017-05-23T06:13:23.665Z,21.73
2017-05-23T06:14:37.654Z,21.75
2017-05-23T06:15:52.040Z,21.79
2017-05-23T06:17:06.324Z,21.81
2017-05-23T06:18:19.991Z,21.83
2017-05-23T06:19:33.597Z,21.86
2017-05-23T06:20:47.326Z,21.88
2017-05-23T06:22:00.999Z,21.9
2017-05-23T06:23:14.731Z,21.92
2017-05-23T06:24:28.754Z,21.89
2017-05-23T06:25:42.465Z,21.84
2017-05-23T06:26:56.077Z,21.79
2017-05-23T06:28:09.720Z,21.77
2017-05-23T06:29:24.395Z,21.73
2017-05-23T06:30:38.359Z,21.73
2017-05-23T06:31:52.303Z,21.76
2017-05-23T06:33:06.068Z,21.79
2017-05-23T06:34:20.247Z,21.83
2017-05-23T06:35:33.926Z,21.86
2017-05-23T06:36:47.501Z,21.87
2017-05-23T06:38:01.162Z,21.87
2017-05-23T06:39:14.880Z,21.89
2017-05-23T06:40:28.927Z,21.91
2017-05-23T06:41:42.569Z,21.93
2017-05-23T06:42:56.511Z,21.95
2017-05-23T06:44:10.480Z,21.96
2017-05-23T06:45:24.354Z,21.99
2017-05-23T06:46:38.910Z,22.02
2017-05-23T06:47:52.520Z,22.04
2017-05-23T06:49:06.168Z,22.08
2017-05-23T06:50:19.911Z,22.12
2017-05-23T06:51:33.542Z,22.16
2017-05-23T06:52:47.491Z,22.19
2017-05-23T06:54:01.130Z,22.22
2017-05-23T06:55:14.919Z,22.28
2017-05-23T06:56:28.935Z,22.35
2017-05-23T06:57:42.666Z,22.43
2017-05-23T06:58:56.283Z,22.49
2017-05-23T07:00:09.989Z,22.57
2017-05-23T07:01:23.959Z,22.64
2017-05-23T07:02:37.893Z,22.71
2017-05-23T07:03:52.349Z,22.76
2017-05-23T07:05:06.357Z,22.82
2017-05-23T07:06:20.290Z,22.89
2017-05-23T07:07:34.277Z,22.97
2017-05-23T07:08:48.134Z,23.02
2017-05-23T07:10:02.425Z,23.11
2017-05-23T07:11:18.554Z,23.18
2017-05-23T07:12:32.540Z,23.24
2017-05-23T07:13:46.337Z,23.28
2017-05-23T07:14:59.941Z,23.32
2017-05-23T07:16:13.829Z,23.36
2017-05-23T07:17:27.493Z,23.39
2017-05-23T07:18:41.169Z,23.42
2017-05-23T07:19:54.862Z,23.44
2017-05-23T07:21:09.294Z,23.46
2017-05-23T07:22:22.911Z,23.48
2017-05-23T07:23:36.926Z,23.49
2017-05-23T07:24:51.422Z,23.51
2017-05-23T07:26:05.106Z,23.53
2017-05-23T07:27:18.770Z,23.54
2017-05-23T07:28:32.504Z,23.55
2017-05-23T07:29:46.279Z,23.56
2017-05-23T07:30:59.957Z,23.58
2017-05-23T07:32:13.880Z,23.61
2017-05-23T07:33:27.557Z,23.62
2017-05-23T07:34:41.282Z,23.65
2017-05-23T07:35:54.996Z,23.67
2017-05-23T07:37:08.903Z,23.72
2017-05-23T07:38:22.497Z,23.75
2017-05-23T07:39:36.333Z,23.75
2017-05-23T07:40:50.866Z,23.76
2017-05-23T07:42:04.553Z,23.76
2017-05-23T07:43:18.514Z,23.76
2017-05-23T07:44:32.170Z,23.78
2017-05-23T07:45:46.402Z,23.81
2017-05-23T07:47:00.364Z,23.85
2017-05-23T07:48:14.290Z,23.92
2017-05-23T07:49:28.284Z,23.99
2017-05-23T07:50:42.330Z,24.05
2017-05-23T07:51:56.003Z,24.09
2017-05-23T07:53:10.130Z,24.15
2017-05-23T07:54:23.871Z,24.19
2017-05-23T07:55:37.572Z,24.25
2017-05-23T07:56:51.164Z,24.31
2017-05-23T07:58:05.120Z,24.34
2017-05-23T07:59:18.963Z,24.36
2017-05-23T08:00:32.618Z,24.35
2017-05-23T08:01:46.477Z,24.35
2017-05-23T08:03:00.083Z,24.38
2017-05-23T08:04:13.757Z,24.44
2017-05-23T08:05:27.373Z,24.52
2017-05-23T08:06:41.293Z,24.62
2017-05-23T08:07:55.316Z,24.73
2017-05-23T08:09:08.931Z,24.81
2017-05-23T08:10:22.870Z,24.84
2017-05-23T08:11:36.544Z,24.83
2017-05-23T08:12:50.503Z,24.81
2017-05-23T08:14:04.113Z,24.84
2017-05-23T08:15:18.054Z,24.93
2017-05-23T08:16:31.982Z,25
2017-05-23T08:17:45.664Z,25.02
2017-05-23T08:18:59.418Z,25.02
2017-05-23T08:20:13.073Z,25
2017-05-23T08:21:26.819Z,25
2017-05-23T08:22:40.537Z,25.03
2017-05-23T08:23:54.165Z,25.06
2017-05-23T08:25:07.791Z,25.08
2017-05-23T08:26:21.439Z,25.11
2017-05-23T08:27:35.142Z,25.14
2017-05-23T08:28:48.971Z,25.14
2017-05-23T08:30:02.620Z,25.18
2017-05-23T08:31:16.593Z,25.24
2017-05-23T08:32:30.286Z,25.29
2017-05-23T08:33:44.121Z,25.32
2017-05-23T08:34:57.898Z,25.36
2017-05-23T08:36:11.559Z,25.37
2017-05-23T08:37:25.787Z,25.37
2017-05-23T08:38:39.413Z,25.37
2017-05-23T08:39:53.421Z,25.39
2017-05-23T08:41:07.065Z,25.42
2017-05-23T08:42:20.724Z,25.45
2017-05-23T08:43:34.370Z,25.47
2017-05-23T08:44:48.335Z,25.49
2017-05-23T08:46:02.016Z,25.51
2017-05-23T08:47:15.982Z,25.57
2017-05-23T08:48:30.059Z,25.63
2017-05-23T08:49:43.772Z,25.71
2017-05-23T08:50:57.525Z,25.78
2017-05-23T08:52:11.240Z,25.83
2017-05-23T08:53:25.260Z,25.85
2017-05-23T08:54:39.583Z,25.83
2017-05-23T08:55:53.577Z,25.83
2017-05-23T08:57:07.926Z,25.84
2017-05-23T08:58:22.243Z,25.87
2017-05-23T08:59:35.940Z,25.91
2017-05-23T09:00:50.117Z,25.98
2017-05-23T09:02:03.711Z,26.05
2017-05-23T09:03:17.381Z,26.13
2017-05-23T09:04:31.080Z,26.21
2017-05-23T09:05:45.039Z,26.26
2017-05-23T09:06:59.320Z,26.33
2017-05-23T09:08:12.935Z,26.39
2017-05-23T09:09:26.522Z,26.43
2017-05-23T09:10:40.188Z,26.43
2017-05-23T09:11:54.183Z,26.41
2017-05-23T09:13:07.844Z,26.36
2017-05-23T09:14:21.499Z,26.33
2017-05-23T09:15:35.230Z,26.27
2017-05-23T09:16:48.820Z,26.2
2017-05-23T09:18:02.765Z,26.11
2017-05-23T09:19:16.450Z,26.01
2017-05-23T09:20:30.532Z,25.94
2017-05-23T09:21:45.668Z,25.89
2017-05-23T09:23:14.160Z,25.93
2017-05-23T09:24:42.783Z,25.92
2017-05-23T09:25:58.098Z,25.94
2017-05-23T09:27:12.072Z,25.93
2017-05-23T09:28:25.898Z,25.92
2017-05-23T09:29:40.448Z,25.97
2017-05-23T09:30:54.130Z,26.04
2017-05-23T09:32:07.974Z,26.07
2017-05-23T09:33:21.617Z,26.1
2017-05-23T09:34:35.295Z,26.15
2017-05-23T09:35:49.602Z,26.23
2017-05-23T09:37:03.197Z,26.32
2017-05-23T09:38:17.197Z,26.42
2017-05-23T09:39:31.523Z,26.49
2017-05-23T09:40:45.478Z,26.58
2017-05-23T09:41:59.466Z,26.63
2017-05-23T09:43:13.086Z,26.71
2017-05-23T09:44:26.687Z,26.77
2017-05-23T09:45:40.725Z,26.82
2017-05-23T09:46:54.334Z,26.89
2017-05-23T09:48:08.279Z,26.97
2017-05-23T09:49:21.940Z,27.03
2017-05-23T09:50:35.723Z,27.09
2017-05-23T09:51:49.361Z,27.14
2017-05-23T09:53:03.274Z,27.19
2017-05-23T09:54:17.568Z,27.28
2017-05-23T09:55:31.231Z,27.35
2017-05-23T09:56:44.840Z,27.43
2017-05-23T09:57:58.478Z,27.55
2017-05-23T09:59:12.405Z,27.66
2017-05-23T10:00:26.716Z,27.74
2017-05-23T10:01:40.490Z,27.81
2017-05-23T10:02:54.070Z,27.88
2017-05-23T10:04:07.733Z,27.94
2017-05-23T10:05:21.396Z,28
2017-05-23T10:06:35.697Z,28.03
2017-05-23T10:07:49.350Z,28.02
2017-05-23T10:09:03.376Z,28.01
2017-05-23T10:10:17.368Z,27.98
2017-05-23T10:11:31.013Z,27.95
2017-05-23T10:12:45.248Z,27.9
2017-05-23T10:13:59.204Z,27.87
2017-05-23T10:15:12.930Z,27.83
2017-05-23T10:16:27.036Z,27.79
2017-05-23T10:17:41.143Z,27.75
2017-05-23T10:18:55.470Z,27.74
2017-05-23T10:20:09.234Z,27.75
2017-05-23T10:21:22.857Z,27.75
2017-05-23T10:22:37.239Z,27.72
2017-05-23T10:23:54.542Z,27.71
2017-05-23T10:25:08.507Z,27.69
2017-05-23T10:26:22.167Z,27.68
2017-05-23T10:27:36.271Z,27.67
2017-05-23T10:28:50.081Z,27.69
2017-05-23T10:30:04.102Z,27.72
2017-05-23T10:31:18.339Z,27.76
2017-05-23T10:32:32.045Z,27.81
2017-05-23T10:33:45.972Z,27.88
2017-05-23T10:35:01.121Z,27.96
2017-05-23T10:36:16.082Z,28.05
2017-05-23T10:37:30.153Z,28.19
2017-05-23T10:38:43.836Z,28.3
2017-05-23T10:39:57.705Z,28.39
2017-05-23T10:41:11.942Z,28.43
2017-05-23T10:42:25.563Z,28.46
2017-05-23T10:43:39.630Z,28.46
2017-05-23T10:44:53.590Z,28.45
2017-05-23T10:46:07.184Z,28.44
2017-05-23T10:47:21.868Z,28.46
2017-05-23T10:48:35.846Z,28.48
2017-05-23T10:49:50.091Z,28.51
2017-05-23T10:51:04.029Z,28.51
2017-05-23T10:52:17.642Z,28.53
2017-05-23T10:53:31.735Z,28.57
2017-05-23T10:54:45.672Z,28.59
2017-05-23T10:55:59.739Z,28.6
2017-05-23T10:57:13.415Z,28.58
2017-05-23T10:58:27.088Z,28.56
2017-05-23T10:59:40.811Z,28.57
2017-05-23T11:00:54.495Z,28.6
2017-05-23T11:02:08.802Z,28.62
2017-05-23T11:03:22.789Z,28.67
2017-05-23T11:04:37.221Z,28.72
2017-05-23T11:05:50.828Z,28.75
2017-05-23T11:07:04.641Z,28.74
2017-05-23T11:08:19.029Z,28.73
2017-05-23T11:09:33.117Z,28.75
2017-05-23T11:10:46.750Z,28.77
2017-05-23T11:12:01.065Z,28.78
2017-05-23T11:13:15.031Z,28.79
2017-05-23T11:14:29.131Z,28.81
2017-05-23T11:15:43.165Z,28.83
2017-05-23T11:16:57.539Z,28.86
2017-05-23T11:18:11.831Z,28.91
2017-05-23T11:19:25.528Z,28.94
2017-05-23T11:20:39.684Z,28.94
2017-05-23T11:21:53.726Z,28.96
2017-05-23T11:23:07.441Z,28.99
2017-05-23T11:24:21.412Z,29.02
2017-05-23T11:25:35.115Z,29.07
2017-05-23T11:26:49.364Z,29.11
2017-05-23T11:28:03.475Z,29.13
2017-05-23T11:29:17.439Z,29.16
2017-05-23T11:30:31.084Z,29.19
2017-05-23T11:31:45.470Z,29.18
2017-05-23T11:32:59.412Z,29.16
2017-05-23T11:34:13.719Z,29.12
2017-05-23T11:35:27.415Z,29.1
2017-05-23T11:36:41.130Z,29.09
2017-05-23T11:37:55.508Z,29.08
2017-05-23T11:39:09.760Z,29.09
2017-05-23T11:40:24.419Z,29.11
2017-05-23T11:41:38.127Z,29.17
2017-05-23T11:42:52.140Z,29.25
2017-05-23T11:44:05.942Z,29.3
2017-05-23T11:45:20.188Z,29.34
2017-05-23T11:46:34.299Z,29.38
2017-05-23T11:47:48.332Z,29.41
2017-05-23T11:49:02.058Z,29.39
2017-05-23T11:50:15.921Z,29.38
2017-05-23T11:51:30.919Z,29.4
2017-05-23T11:53:01.700Z,29.42
2017-05-23T11:54:15.295Z,29.46
2017-05-23T11:55:29.320Z,29.48
2017-05-23T11:56:43.454Z,29.52
2017-05-23T11:57:57.020Z,29.49
2017-05-23T11:59:11.783Z,29.46
2017-05-23T12:00:26.144Z,29.44
2017-05-23T12:01:40.306Z,29.44
2017-05-23T12:02:54.344Z,29.43
2017-05-23T12:04:08.401Z,29.4
2017-05-23T12:05:22.879Z,29.39
2017-05-23T12:06:36.561Z,29.39
2017-05-23T12:07:50.790Z,29.44
2017-05-23T12:09:05.044Z,29.46
2017-05-23T12:10:18.717Z,29.48
2017-05-23T12:11:32.456Z,29.53
2017-05-23T12:12:46.201Z,29.6
2017-05-23T12:14:00.030Z,29.69
2017-05-23T12:15:14.383Z,29.77
2017-05-23T12:16:28.026Z,29.83
2017-05-23T12:17:41.769Z,29.87
2017-05-23T12:18:55.873Z,29.96
2017-05-23T12:20:09.591Z,30.05
2017-05-23T12:21:24.390Z,30.12
2017-05-23T12:22:38.070Z,30.18
2017-05-23T12:23:52.070Z,30.24
2017-05-23T12:25:06.305Z,30.26
2017-05-23T12:26:20.392Z,30.28
2017-05-23T12:27:34.428Z,30.27
2017-05-23T12:28:49.014Z,30.24
2017-05-23T12:30:03.360Z,30.17
2017-05-23T12:31:17.397Z,30.1
2017-05-23T12:32:31.536Z,30.05
2017-05-23T12:33:45.538Z,30
2017-05-23T12:34:59.279Z,29.98
2017-05-23T12:36:12.949Z,29.99
2017-05-23T12:37:26.928Z,30
2017-05-23T12:38:40.884Z,30.03
2017-05-23T12:39:55.231Z,30.1
2017-05-23T12:41:09.643Z,30.13
2017-05-23T12:42:23.312Z,30.18
2017-05-23T12:43:38.731Z,30.2
2017-05-23T12:44:52.467Z,30.22
2017-05-23T12:46:06.489Z,30.27
2017-05-23T12:47:20.174Z,30.33
2017-05-23T12:48:34.257Z,30.38
2017-05-23T12:49:47.955Z,30.45
2017-05-23T12:51:01.941Z,30.54
2017-05-23T12:52:15.769Z,30.62
2017-05-23T12:53:29.471Z,30.7
2017-05-23T12:54:43.538Z,30.82
2017-05-23T12:55:57.248Z,30.87
2017-05-23T12:57:11.693Z,30.91
2017-05-23T12:58:26.118Z,30.96
2017-05-23T12:59:40.317Z,30.97
2017-05-23T13:00:53.949Z,30.97
2017-05-23T13:02:08.109Z,30.98
2017-05-23T13:03:21.842Z,30.97
2017-05-23T13:04:35.741Z,30.97
2017-05-23T13:05:49.415Z,30.97
2017-05-23T13:07:03.554Z,30.97
2017-05-23T13:08:19.269Z,30.96
2017-05-23T13:09:32.946Z,30.99
2017-05-23T13:10:46.893Z,31.02
2017-05-23T13:12:00.663Z,31.07
2017-05-23T13:13:14.917Z,31.12
2017-05-23T13:14:29.210Z,31.15
2017-05-23T13:15:42.821Z,31.18
2017-05-23T13:16:56.924Z,31.21
2017-05-23T13:18:10.631Z,31.23
2017-05-23T13:19:24.238Z,31.27
2017-05-23T13:20:37.863Z,31.3
2017-05-23T13:21:51.520Z,31.33
2017-05-23T13:23:05.260Z,31.33
2017-05-23T13:24:19.602Z,31.29
2017-05-23T13:25:33.217Z,31.21
2017-05-23T13:26:47.208Z,31.18
2017-05-23T13:28:01.137Z,31.18
2017-05-23T13:29:15.192Z,31.18
2017-05-23T13:30:29.225Z,31.2
2017-05-23T13:31:42.979Z,31.23
2017-05-23T13:32:56.707Z,31.24
2017-05-23T13:34:10.333Z,31.22
2017-05-23T13:35:24.359Z,31.21
2017-05-23T13:36:37.978Z,31.2
2017-05-23T13:37:51.585Z,31.22
2017-05-23T13:39:05.633Z,31.19
2017-05-23T13:40:19.604Z,31.15
2017-05-23T13:41:33.755Z,31.14
2017-05-23T13:42:47.353Z,31.09
2017-05-23T13:44:01.056Z,31.06
2017-05-23T13:45:14.775Z,31.01
2017-05-23T13:46:28.823Z,30.97
2017-05-23T13:47:43.679Z,30.94
2017-05-23T13:48:57.688Z,30.91
2017-05-23T13:50:11.780Z,30.87
2017-05-23T13:51:25.870Z,30.83
2017-05-23T13:52:39.712Z,30.78
2017-05-23T13:53:54.073Z,30.77
2017-05-23T13:55:07.843Z,30.77
2017-05-23T13:56:22.226Z,30.79
2017-05-23T13:57:36.233Z,30.8
2017-05-23T13:58:49.930Z,30.81
2017-05-23T14:00:04.285Z,30.8
2017-05-23T14:01:18.057Z,30.83
2017-05-23T14:02:31.732Z,30.88
2017-05-23T14:03:45.433Z,30.93
2017-05-23T14:04:59.100Z,31.02
2017-05-23T14:06:13.201Z,31.09
2017-05-23T14:07:26.861Z,31.14
2017-05-23T14:08:40.897Z,31.17
2017-05-23T14:09:54.536Z,31.18
2017-05-23T14:11:08.561Z,31.17
2017-05-23T14:12:22.474Z,31.18
2017-05-23T14:13:36.157Z,31.2
2017-05-23T14:14:49.757Z,31.18
2017-05-23T14:16:03.426Z,31.09
2017-05-23T14:17:17.003Z,30.99
2017-05-23T14:18:30.995Z,30.91
2017-05-23T14:19:45.002Z,30.83
2017-05-23T14:20:58.687Z,30.81
2017-05-23T14:22:12.823Z,30.8
2017-05-23T14:23:26.865Z,30.71
2017-05-23T14:24:41.241Z,30.64
2017-05-23T14:25:54.898Z,30.59
2017-05-23T14:27:08.604Z,30.58
2017-05-23T14:28:22.289Z,30.58
2017-05-23T14:29:35.888Z,30.61
2017-05-23T14:30:50.054Z,30.58
2017-05-23T14:32:03.871Z,30.49
2017-05-23T14:33:18.281Z,30.41
2017-05-23T14:34:31.951Z,30.36
2017-05-23T14:35:45.654Z,30.33
2017-05-23T14:36:59.593Z,30.31
2017-05-23T14:38:13.411Z,30.33
2017-05-23T14:39:28.052Z,30.38
2017-05-23T14:40:41.680Z,30.41
2017-05-23T14:41:55.306Z,30.46
2017-05-23T14:43:09.296Z,30.53
2017-05-23T14:44:23.235Z,30.58
2017-05-23T14:45:37.359Z,30.59
2017-05-23T14:46:50.954Z,30.64
2017-05-23T14:48:05.028Z,30.7
2017-05-23T14:49:20.614Z,30.76
2017-05-23T14:50:35.451Z,30.82
2017-05-23T14:51:49.528Z,30.83
2017-05-23T14:53:03.864Z,30.83
2017-05-23T14:54:17.955Z,30.82
2017-05-23T14:55:32.598Z,30.84
2017-05-23T14:56:46.321Z,30.85
2017-05-23T14:58:00.247Z,30.83
2017-05-23T14:59:14.548Z,30.8
2017-05-23T15:00:28.544Z,30.8
2017-05-23T15:01:42.504Z,30.78
2017-05-23T15:02:56.203Z,30.75
2017-05-23T15:04:10.617Z,30.73
2017-05-23T15:05:24.302Z,30.69
2017-05-23T15:06:38.322Z,30.64
2017-05-23T15:07:52.833Z,30.61
2017-05-23T15:09:06.598Z,30.6
2017-05-23T15:10:20.338Z,30.6
2017-05-23T15:11:34.013Z,30.6
2017-05-23T15:12:48.277Z,30.6
2017-05-23T15:14:02.614Z,30.63
2017-05-23T15:15:16.381Z,30.64
2017-05-23T15:16:30.437Z,30.67
2017-05-23T15:17:44.674Z,30.64
2017-05-23T15:18:58.750Z,30.6
2017-05-23T15:20:12.709Z,30.56
2017-05-23T15:21:26.473Z,30.55
2017-05-23T15:22:40.854Z,30.55
2017-05-23T15:23:55.716Z,30.56
2017-05-23T15:25:10.099Z,30.57
2017-05-23T15:26:25.368Z,30.56
2017-05-23T15:27:45.246Z,30.54
2017-05-23T15:28:59.392Z,30.51
2017-05-23T15:30:13.446Z,30.47
2017-05-23T15:31:28.305Z,30.41
2017-05-23T15:32:42.471Z,30.31
2017-05-23T15:33:56.465Z,30.23
2017-05-23T15:35:10.192Z,30.13
2017-05-23T15:36:23.910Z,30.01
2017-05-23T15:37:37.581Z,29.86
2017-05-23T15:38:51.648Z,29.77
2017-05-23T15:40:05.327Z,29.7
2017-05-23T15:41:19.260Z,29.65
2017-05-23T15:42:32.864Z,29.62
2017-05-23T15:43:46.566Z,29.62
2017-05-23T15:45:00.857Z,29.62
2017-05-23T15:46:14.586Z,29.62
2017-05-23T15:47:29.079Z,29.6
2017-05-23T15:48:42.927Z,29.57
2017-05-23T15:49:58.726Z,29.52
2017-05-23T15:51:13.845Z,29.46
2017-05-23T15:52:28.363Z,29.42
2017-05-23T15:53:43.325Z,29.36
2017-05-23T15:55:00.525Z,29.3
2017-05-23T15:56:14.949Z,29.26
2017-05-23T15:57:28.932Z,29.23